AirNav   Pilot Hours Calculator
 
 972 users online  

II89 Lockyear Airport
St Wendel, Indiana, USA

GOING TO ST WENDEL?


FAA INFORMATION EFFECTIVE 26 JANUARY 2023

Location

FAA Identifier: II89
Lat/Long: 38-05-13.1550N 087-40-54.0780W
38-05.219250N 087-40.901300W
38.0869875,-87.6816883
(estimated)
Elevation: 525 ft. / 160 m (estimated)
Variation: 00W (1985)
From city: 2 miles SE of ST WENDEL, IN
Time zone: UTC -6 (UTC -5 during Daylight Saving Time)
Zip code: 47720

Airport Operations

Airport use: Private use, PERSONAL USE.
Activation date: 05/1989
Control tower: no
ARTCC: INDIANAPOLIS CENTER
FSS: TERRE HAUTE FLIGHT SERVICE STATION
Attendance: UNATNDD
Wind indicator: yes
Segmented circle: no

Airport Communications

WX ASOS at EVV (8 nm E): 120.2 (812-436-4681)
WX AWOS-3PT at EHR (17 nm S): 118.85 (270-826-0511)

Nearby radio navigation aids

VOR radial/distance  VOR name  Freq  Var
PXVr019/10.3POCKET CITY VORTAC113.3003E
OWBr314/31.9OWENSBORO VOR/DME108.6004W

 
NDB name  Hdg/Dist  Freq  Var  ID
WAYNE COUNTY118/38.525701WFWC ..-. .-- -.-.

Airport Services

Runway Information

Runway NE/SW

Dimensions: 1000 x 60 ft. / 305 x 18 m
Surface: turf
RUNWAY NE  RUNWAY SW
Traffic pattern: leftleft
Obstructions: nonepline

Airport Ownership and Management from official FAA records

Ownership: Privately-owned
Owner: THOMAS B LOCKYEAR
11737 ST. WENDEL RD
EVANSVILLE, IN 47720-8122
Phone 812-963-9121
Manager: THOMAS B LOCKYEAR
11737 ST. WENDEL RD
EVANSVILLE, IN 47720-8122
Phone 812-963-9121

Airport Operational Statistics

Aircraft based on the field: 2
Single engine airplanes: 2
    

Additional Remarks

TAKE OFF NE - LAND SW ONLY.
OWNER DESIRES ARPT NOT BE CHARTED.
FOR CD CTC EVANSVILLE APCH AT 812-436-4690, WHEN APCH CLSD CTC INDIANAPOLIS ARTCC AT 317-247-2411.

Instrument Procedures

There are no published instrument procedures at II89.

Some nearby airports with instrument procedures:

KEVV - Evansville Regional Airport (8 nm E)
KEHR - Henderson City-County Airport (17 nm S)
KCUL - Carmi Municipal Airport (21 nm W)
KAJG - Mount Carmel Municipal Airport (31 nm N)
KOWB - Owensboro/Daviess County Regional Airport (32 nm SE)
 
Loc | Ops | Rwys | IFR | FBO | Links
Com | Nav | Svcs | Stats | Notes
Area around II89 (Lockyear Airport)
 
Road maps at: MapQuest Bing Google
 
Aerial photo
No photo
 
Sectional chart

 
Airport distance calculator
Flying to Lockyear Airport? Find the distance to fly.

From to II89

Sunrise and sunset
Times for 08-Feb-2023
 Local
(UTC-6)
 Zulu
(UTC)
Morning civil twilight06:2212:22
Sunrise06:5012:50
Sunset17:2023:20
Evening civil twilight17:4823:48

Current date and time
Zulu (UTC)  09-Feb-2023 04:18:08
Local (UTC-6)  08-Feb-2023 22:18:08
 
METAR
KEVV 
8nm E 
090354Z 06007KT 6SM BR FEW011 OVC036 11/11 A2989 RMK AO2 LTG DSNT SW RAB0259E23 PRESFR SLP121 P0001 T01110106 $
KEHR 
16nm S 
090356Z AUTO 09006KT 4SM VCTS BR SCT010 SCT080 BKN110 12/11 A2987 RMK AO2 LTG DSNT W TSB56 PRESFR SLP117 T01170111
KI19 
17nm E 
090355Z AUTO VRB04KT 4SM -RA BR OVC027 06/06 A3007 RMK AO2 P0006
TAF
KEVV 
8nm E 
082054Z 0821/0918 09007KT 2SM SHRA BR SCT008 OVC015 TEMPO 0821/0822 OVC050 FM090200 14014KT 6SM SHRA BR SCT008 OVC015 FM090500 16017G28KT 6SM -SHRA BR OVC020 WS020/18045KT FM090900 19023G40KT 6SM SHRA BR OVC015 WS020/19055KT FM091200 22023G38KT P6SM OVC015
NOTAMs
Click for the latest NOTAMs
NOTAMs are issued by the DoD/FAA and will open in a separate window not controlled by AirNav.

 

 
 

Would you like to see your business listed on this page?

 If your business provides an interesting product or service to pilots, flight crews, aircraft, or users of the Lockyear Airport, you should consider listing it here.  To start the listing process, click on the button below
 
Add a business
 

Other Pages about Lockyear Airport

Update a link
 
Copyright © AirNav, LLC. All rights reserved. Privacy Policy  Contact